sensor_id;sensor_type;location;lat;lon;timestamp;P1;durP1;ratioP1;P2;durP2;ratioP2
6121;SDS011;3091;51.506;7.672;2023-03-01T00:02:16;17.30;;;16.60;;
6121;SDS011;3091;51.506;7.672;2023-03-01T00:04:42;16.70;;;16.00;;
6121;SDS011;3091;51.506;7.672;2023-03-01T00:07:08;17.10;;;16.40;;
6121;SDS011;3091;51.506;7.672;2023-03-01T00:09:35;17.60;;;16.90;;
6121;SDS011;3091;51.506;7.672;2023-03-01T00:12:02;18.90;;;18.00;;
6121;SDS011;3091;51.506;7.672;2023-03-01T00:14:28;20.57;;;18.50;;
6121;SDS011;3091;51.506;7.672;2023-03-01T00:16:54;18.60;;;17.80;;
6121;SDS011;3091;51.506;7.672;2023-03-01T00:19:20;19.83;;;18.47;;
6121;SDS011;3091;51.506;7.672;2023-03-01T00:21:47;17.10;;;16.40;;
6121;SDS011;3091;51.506;7.672;2023-03-01T00:24:13;16.90;;;16.20;;
6121;SDS011;3091;51.506;7.672;2023-03-01T00:26:39;17.90;;;17.20;;
6121;SDS011;3091;51.506;7.672;2023-03-01T00:29:06;18.33;;;17.63;;
6121;SDS011;3091;51.506;7.672;2023-03-01T00:31:32;17.40;;;16.80;;
6121;SDS011;3091;51.506;7.672;2023-03-01T00:34:03;18.77;;;17.97;;
6121;SDS011;3091;51.506;7.672;2023-03-01T00:36:33;19.20;;;18.23;;
6121;SDS011;3091;51.506;7.672;2023-03-01T00:39:00;18.90;;;18.10;;
6121;SDS011;3091;51.506;7.672;2023-03-01T00:41:26;18.10;;;17.40;;
6121;SDS011;3091;51.506;7.672;2023-03-01T00:43:53;27.33;;;25.43;;
6121;SDS011;3091;51.506;7.672;2023-03-01T00:46:20;17.60;;;16.90;;
6121;SDS011;3091;51.506;7.672;2023-03-01T00:48:46;17.83;;;17.13;;
6121;SDS011;3091;51.506;7.672;2023-03-01T00:51:25;18.17;;;17.37;;
6121;SDS011;3091;51.506;7.672;2023-03-01T00:53:58;18.20;;;17.50;;
6121;SDS011;3091;51.506;7.672;2023-03-01T00:56:24;18.20;;;17.40;;
6121;SDS011;3091;51.506;7.672;2023-03-01T00:58:50;18.20;;;17.40;;
6121;SDS011;3091;51.506;7.672;2023-03-01T01:01:19;18.30;;;17.50;;
6121;SDS011;3091;51.506;7.672;2023-03-01T01:03:56;16.90;;;16.30;;
6121;SDS011;3091;51.506;7.672;2023-03-01T01:06:26;19.07;;;18.27;;
6121;SDS011;3091;51.506;7.672;2023-03-01T01:08:53;17.40;;;16.70;;
6121;SDS011;3091;51.506;7.672;2023-03-01T01:11:20;20.80;;;20.00;;
6121;SDS011;3091;51.506;7.672;2023-03-01T01:13:46;16.63;;;16.03;;
6121;SDS011;3091;51.506;7.672;2023-03-01T01:16:13;16.80;;;16.20;;
6121;SDS011;3091;51.506;7.672;2023-03-01T01:18:39;18.50;;;17.70;;
6121;SDS011;3091;51.506;7.672;2023-03-01T01:21:12;18.57;;;17.67;;
6121;SDS011;3091;51.506;7.672;2023-03-01T01:23:39;17.70;;;16.90;;
6121;SDS011;3091;51.506;7.672;2023-03-01T01:26:16;18.07;;;17.27;;
6121;SDS011;3091;51.506;7.672;2023-03-01T01:28:42;18.13;;;17.33;;
6121;SDS011;3091;51.506;7.672;2023-03-01T01:31:08;19.33;;;18.53;;
6121;SDS011;3091;51.506;7.672;2023-03-01T01:33:34;18.20;;;17.50;;
6121;SDS011;3091;51.506;7.672;2023-03-01T01:36:00;18.53;;;17.73;;
6121;SDS011;3091;51.506;7.672;2023-03-01T01:38:26;17.70;;;17.00;;
6121;SDS011;3091;51.506;7.672;2023-03-01T01:40:52;17.67;;;16.97;;
6121;SDS011;3091;51.506;7.672;2023-03-01T01:43:22;17.90;;;17.20;;
6121;SDS011;3091;51.506;7.672;2023-03-01T01:45:49;20.00;;;19.00;;
6121;SDS011;3091;51.506;7.672;2023-03-01T01:48:22;18.67;;;17.97;;
6121;SDS011;3091;51.506;7.672;2023-03-01T01:50:51;18.70;;;18.00;;
6121;SDS011;3091;51.506;7.672;2023-03-01T01:53:20;19.13;;;18.27;;
6121;SDS011;3091;51.506;7.672;2023-03-01T01:55:47;19.03;;;18.13;;
6121;SDS011;3091;51.506;7.672;2023-03-01T01:58:16;17.90;;;17.10;;
6121;SDS011;3091;51.506;7.672;2023-03-01T02:00:43;18.73;;;17.40;;
6121;SDS011;3091;51.506;7.672;2023-03-01T02:03:10;17.60;;;16.90;;
6121;SDS011;3091;51.506;7.672;2023-03-01T02:08:06;17.67;;;16.87;;
6121;SDS011;3091;51.506;7.672;2023-03-01T02:10:34;18.83;;;17.83;;
6121;SDS011;3091;51.506;7.672;2023-03-01T02:13:00;19.33;;;18.43;;
6121;SDS011;3091;51.506;7.672;2023-03-01T02:15:27;20.57;;;19.67;;
6121;SDS011;3091;51.506;7.672;2023-03-01T02:17:57;18.37;;;17.57;;
6121;SDS011;3091;51.506;7.672;2023-03-01T02:22:49;17.70;;;16.90;;
6121;SDS011;3091;51.506;7.672;2023-03-01T02:30:26;18.70;;;17.83;;
6121;SDS011;3091;51.506;7.672;2023-03-01T02:32:52;20.33;;;19.30;;
6121;SDS011;3091;51.506;7.672;2023-03-01T02:35:21;19.60;;;18.40;;
6121;SDS011;3091;51.506;7.672;2023-03-01T02:37:47;17.93;;;17.23;;
6121;SDS011;3091;51.506;7.672;2023-03-01T02:40:15;17.70;;;17.00;;
6121;SDS011;3091;51.506;7.672;2023-03-01T02:43:15;20.50;;;19.17;;
6121;SDS011;3091;51.506;7.672;2023-03-01T02:45:34;19.80;;;18.80;;
6121;SDS011;3091;51.506;7.672;2023-03-01T02:48:00;21.27;;;19.53;;
6121;SDS011;3091;51.506;7.672;2023-03-01T02:53:02;19.73;;;18.80;;
6121;SDS011;3091;51.506;7.672;2023-03-01T02:55:31;18.93;;;18.13;;
6121;SDS011;3091;51.506;7.672;2023-03-01T02:57:57;17.63;;;16.87;;
6121;SDS011;3091;51.506;7.672;2023-03-01T03:00:29;17.37;;;16.67;;
6121;SDS011;3091;51.506;7.672;2023-03-01T03:02:58;16.90;;;16.30;;
6121;SDS011;3091;51.506;7.672;2023-03-01T03:05:28;18.77;;;17.80;;
6121;SDS011;3091;51.506;7.672;2023-03-01T03:07:54;17.67;;;16.90;;
6121;SDS011;3091;51.506;7.672;2023-03-01T03:10:24;18.33;;;17.57;;
6121;SDS011;3091;51.506;7.672;2023-03-01T03:12:52;17.23;;;16.53;;
6121;SDS011;3091;51.506;7.672;2023-03-01T03:15:19;17.77;;;17.07;;
6121;SDS011;3091;51.506;7.672;2023-03-01T03:17:45;17.60;;;16.90;;
6121;SDS011;3091;51.506;7.672;2023-03-01T03:20:12;17.60;;;16.90;;
6121;SDS011;3091;51.506;7.672;2023-03-01T03:22:44;18.97;;;18.27;;
6121;SDS011;3091;51.506;7.672;2023-03-01T03:25:10;20.97;;;20.07;;
6121;SDS011;3091;51.506;7.672;2023-03-01T03:27:37;17.67;;;16.97;;
6121;SDS011;3091;51.506;7.672;2023-03-01T03:30:04;18.50;;;17.70;;
6121;SDS011;3091;51.506;7.672;2023-03-01T03:32:34;18.50;;;17.70;;
6121;SDS011;3091;51.506;7.672;2023-03-01T03:35:00;18.30;;;17.60;;
6121;SDS011;3091;51.506;7.672;2023-03-01T03:37:26;17.87;;;17.17;;
6121;SDS011;3091;51.506;7.672;2023-03-01T03:40:13;21.73;;;20.83;;
6121;SDS011;3091;51.506;7.672;2023-03-01T03:42:40;17.70;;;17.00;;
6121;SDS011;3091;51.506;7.672;2023-03-01T03:45:06;21.10;;;20.13;;
6121;SDS011;3091;51.506;7.672;2023-03-01T03:47:32;17.50;;;16.70;;
6121;SDS011;3091;51.506;7.672;2023-03-01T03:49:58;17.60;;;16.90;;
6121;SDS011;3091;51.506;7.672;2023-03-01T03:52:27;18.07;;;17.27;;
6121;SDS011;3091;51.506;7.672;2023-03-01T03:54:55;18.20;;;17.40;;
6121;SDS011;3091;51.506;7.672;2023-03-01T03:57:21;17.57;;;16.87;;
6121;SDS011;3091;51.506;7.672;2023-03-01T03:59:47;18.10;;;17.40;;
6121;SDS011;3091;51.506;7.672;2023-03-01T04:02:13;17.90;;;17.10;;
6121;SDS011;3091;51.506;7.672;2023-03-01T04:04:46;17.93;;;17.23;;
6121;SDS011;3091;51.506;7.672;2023-03-01T04:07:14;18.23;;;17.43;;
6121;SDS011;3091;51.506;7.672;2023-03-01T04:09:41;18.00;;;17.20;;
6121;SDS011;3091;51.506;7.672;2023-03-01T04:12:08;17.63;;;16.93;;
6121;SDS011;3091;51.506;7.672;2023-03-01T04:14:34;17.80;;;17.00;;
6121;SDS011;3091;51.506;7.672;2023-03-01T04:17:02;17.60;;;16.90;;
6121;SDS011;3091;51.506;7.672;2023-03-01T04:19:30;17.40;;;16.70;;
6121;SDS011;3091;51.506;7.672;2023-03-01T04:22:03;18.00;;;17.20;;
6121;SDS011;3091;51.506;7.672;2023-03-01T04:24:36;17.80;;;17.10;;
6121;SDS011;3091;51.506;7.672;2023-03-01T04:27:02;18.00;;;17.20;;
6121;SDS011;3091;51.506;7.672;2023-03-01T04:29:28;18.00;;;17.30;;
6121;SDS011;3091;51.506;7.672;2023-03-01T04:31:54;18.30;;;17.50;;
6121;SDS011;3091;51.506;7.672;2023-03-01T04:34:20;20.30;;;19.10;;
6121;SDS011;3091;51.506;7.672;2023-03-01T04:36:46;17.70;;;17.00;;
6121;SDS011;3091;51.506;7.672;2023-03-01T04:39:12;17.60;;;16.90;;
6121;SDS011;3091;51.506;7.672;2023-03-01T04:41:39;17.30;;;16.60;;
6121;SDS011;3091;51.506;7.672;2023-03-01T04:44:08;17.03;;;16.43;;
6121;SDS011;3091;51.506;7.672;2023-03-01T04:46:34;18.10;;;17.30;;
6121;SDS011;3091;51.506;7.672;2023-03-01T04:49:01;17.00;;;16.40;;
6121;SDS011;3091;51.506;7.672;2023-03-01T04:51:27;16.90;;;16.30;;
6121;SDS011;3091;51.506;7.672;2023-03-01T04:53:53;17.60;;;16.80;;
6121;SDS011;3091;51.506;7.672;2023-03-01T04:56:19;16.80;;;16.20;;
6121;SDS011;3091;51.506;7.672;2023-03-01T04:58:48;17.10;;;16.40;;
6121;SDS011;3091;51.506;7.672;2023-03-01T05:01:15;17.00;;;16.30;;
6121;SDS011;3091;51.506;7.672;2023-03-01T05:03:45;17.30;;;16.50;;
6121;SDS011;3091;51.506;7.672;2023-03-01T05:06:12;17.07;;;16.27;;
6121;SDS011;3091;51.506;7.672;2023-03-01T05:08:38;17.77;;;16.90;;
6121;SDS011;3091;51.506;7.672;2023-03-01T05:11:04;16.80;;;16.10;;
6121;SDS011;3091;51.506;7.672;2023-03-01T05:13:34;16.80;;;16.10;;
6121;SDS011;3091;51.506;7.672;2023-03-01T05:16:00;17.10;;;16.33;;
6121;SDS011;3091;51.506;7.672;2023-03-01T05:18:27;17.40;;;16.60;;
6121;SDS011;3091;51.506;7.672;2023-03-01T05:20:55;17.70;;;16.90;;
6121;SDS011;3091;51.506;7.672;2023-03-01T05:23:23;17.50;;;16.70;;
6121;SDS011;3091;51.506;7.672;2023-03-01T05:25:49;16.70;;;16.00;;
6121;SDS011;3091;51.506;7.672;2023-03-01T05:28:17;16.70;;;16.00;;
6121;SDS011;3091;51.506;7.672;2023-03-01T05:30:44;16.00;;;15.40;;
6121;SDS011;3091;51.506;7.672;2023-03-01T05:33:10;16.80;;;16.10;;
6121;SDS011;3091;51.506;7.672;2023-03-01T05:35:40;16.80;;;16.10;;
6121;SDS011;3091;51.506;7.672;2023-03-01T05:38:07;16.40;;;15.70;;
6121;SDS011;3091;51.506;7.672;2023-03-01T05:40:33;16.97;;;16.23;;
6121;SDS011;3091;51.506;7.672;2023-03-01T05:42:59;17.43;;;16.73;;
6121;SDS011;3091;51.506;7.672;2023-03-01T05:45:26;15.40;;;14.80;;
6121;SDS011;3091;51.506;7.672;2023-03-01T05:47:53;16.67;;;15.87;;
6121;SDS011;3091;51.506;7.672;2023-03-01T05:50:20;15.60;;;15.00;;
6121;SDS011;3091;51.506;7.672;2023-03-01T05:52:48;18.37;;;17.63;;
6121;SDS011;3091;51.506;7.672;2023-03-01T05:55:18;17.50;;;16.80;;
6121;SDS011;3091;51.506;7.672;2023-03-01T05:57:45;17.87;;;17.07;;
6121;SDS011;3091;51.506;7.672;2023-03-01T06:00:11;16.97;;;16.27;;
6121;SDS011;3091;51.506;7.672;2023-03-01T06:02:37;16.90;;;16.20;;
6121;SDS011;3091;51.506;7.672;2023-03-01T06:05:04;18.30;;;17.50;;
6121;SDS011;3091;51.506;7.672;2023-03-01T06:07:31;17.50;;;16.80;;
6121;SDS011;3091;51.506;7.672;2023-03-01T06:09:57;17.80;;;17.10;;
6121;SDS011;3091;51.506;7.672;2023-03-01T06:12:23;17.50;;;16.80;;
6121;SDS011;3091;51.506;7.672;2023-03-01T06:14:49;18.30;;;17.60;;
6121;SDS011;3091;51.506;7.672;2023-03-01T06:17:15;19.00;;;18.20;;
6121;SDS011;3091;51.506;7.672;2023-03-01T06:19:41;17.10;;;16.30;;
6121;SDS011;3091;51.506;7.672;2023-03-01T06:22:07;18.73;;;17.87;;
6121;SDS011;3091;51.506;7.672;2023-03-01T06:24:41;17.40;;;16.60;;
6121;SDS011;3091;51.506;7.672;2023-03-01T06:27:07;16.80;;;16.10;;
6121;SDS011;3091;51.506;7.672;2023-03-01T06:29:33;17.10;;;16.30;;
6121;SDS011;3091;51.506;7.672;2023-03-01T06:31:59;16.80;;;16.10;;
6121;SDS011;3091;51.506;7.672;2023-03-01T06:34:25;16.70;;;16.00;;
6121;SDS011;3091;51.506;7.672;2023-03-01T06:36:51;16.80;;;16.10;;
6121;SDS011;3091;51.506;7.672;2023-03-01T06:39:19;17.17;;;16.47;;
6121;SDS011;3091;51.506;7.672;2023-03-01T06:41:45;15.90;;;15.20;;
6121;SDS011;3091;51.506;7.672;2023-03-01T06:44:11;15.10;;;14.50;;
6121;SDS011;3091;51.506;7.672;2023-03-01T06:46:38;13.30;;;12.80;;
6121;SDS011;3091;51.506;7.672;2023-03-01T06:49:05;12.73;;;12.33;;
6121;SDS011;3091;51.506;7.672;2023-03-01T06:51:34;13.93;;;13.43;;
6121;SDS011;3091;51.506;7.672;2023-03-01T06:54:00;14.90;;;14.30;;
6121;SDS011;3091;51.506;7.672;2023-03-01T06:56:26;14.70;;;14.20;;
6121;SDS011;3091;51.506;7.672;2023-03-01T06:58:52;15.50;;;14.90;;
6121;SDS011;3091;51.506;7.672;2023-03-01T07:01:18;18.57;;;17.87;;
6121;SDS011;3091;51.506;7.672;2023-03-01T07:03:44;20.03;;;19.23;;
6121;SDS011;3091;51.506;7.672;2023-03-01T07:06:10;20.47;;;19.67;;
6121;SDS011;3091;51.506;7.672;2023-03-01T07:08:36;21.27;;;20.47;;
6121;SDS011;3091;51.506;7.672;2023-03-01T07:11:02;21.67;;;20.87;;
6121;SDS011;3091;51.506;7.672;2023-03-01T07:13:28;18.00;;;17.30;;
6121;SDS011;3091;51.506;7.672;2023-03-01T07:15:54;14.50;;;13.90;;
6121;SDS011;3091;51.506;7.672;2023-03-01T07:18:23;12.50;;;12.10;;
6121;SDS011;3091;51.506;7.672;2023-03-01T07:20:49;13.50;;;13.00;;
6121;SDS011;3091;51.506;7.672;2023-03-01T07:23:15;12.90;;;12.50;;
6121;SDS011;3091;51.506;7.672;2023-03-01T07:25:41;12.90;;;12.50;;
6121;SDS011;3091;51.506;7.672;2023-03-01T07:28:07;13.03;;;12.33;;
6121;SDS011;3091;51.506;7.672;2023-03-01T07:30:33;11.00;;;10.70;;
6121;SDS011;3091;51.506;7.672;2023-03-01T07:33:07;11.80;;;11.40;;
6121;SDS011;3091;51.506;7.672;2023-03-01T07:35:33;12.70;;;12.30;;
6121;SDS011;3091;51.506;7.672;2023-03-01T07:37:59;13.83;;;13.17;;
6121;SDS011;3091;51.506;7.672;2023-03-01T07:40:25;12.40;;;11.97;;
6121;SDS011;3091;51.506;7.672;2023-03-01T07:42:55;11.37;;;10.97;;
6121;SDS011;3091;51.506;7.672;2023-03-01T07:45:21;11.13;;;10.80;;
6121;SDS011;3091;51.506;7.672;2023-03-01T07:47:47;11.83;;;11.33;;
6121;SDS011;3091;51.506;7.672;2023-03-01T07:50:13;12.40;;;11.90;;
6121;SDS011;3091;51.506;7.672;2023-03-01T07:52:40;12.93;;;12.43;;
6121;SDS011;3091;51.506;7.672;2023-03-01T07:55:06;14.20;;;13.60;;
6121;SDS011;3091;51.506;7.672;2023-03-01T07:57:32;15.20;;;14.50;;
6121;SDS011;3091;51.506;7.672;2023-03-01T07:59:58;12.53;;;12.07;;
6121;SDS011;3091;51.506;7.672;2023-03-01T08:02:24;12.30;;;11.90;;
6121;SDS011;3091;51.506;7.672;2023-03-01T08:04:50;13.00;;;12.50;;
6121;SDS011;3091;51.506;7.672;2023-03-01T08:07:16;12.97;;;12.57;;
6121;SDS011;3091;51.506;7.672;2023-03-01T08:09:42;12.20;;;11.80;;
6121;SDS011;3091;51.506;7.672;2023-03-01T08:12:08;12.40;;;11.90;;
6121;SDS011;3091;51.506;7.672;2023-03-01T08:14:34;11.70;;;11.30;;
6121;SDS011;3091;51.506;7.672;2023-03-01T08:17:00;11.00;;;10.60;;
6121;SDS011;3091;51.506;7.672;2023-03-01T08:19:30;12.57;;;12.17;;
6121;SDS011;3091;51.506;7.672;2023-03-01T08:21:56;12.57;;;12.17;;
6121;SDS011;3091;51.506;7.672;2023-03-01T08:24:23;11.47;;;11.07;;
6121;SDS011;3091;51.506;7.672;2023-03-01T08:26:49;12.90;;;12.30;;
6121;SDS011;3091;51.506;7.672;2023-03-01T08:29:15;12.70;;;12.30;;
6121;SDS011;3091;51.506;7.672;2023-03-01T08:31:41;11.63;;;11.23;;
6121;SDS011;3091;51.506;7.672;2023-03-01T08:34:09;15.23;;;14.43;;
6121;SDS011;3091;51.506;7.672;2023-03-01T08:36:39;14.47;;;13.57;;
6121;SDS011;3091;51.506;7.672;2023-03-01T08:39:06;12.70;;;12.20;;
6121;SDS011;3091;51.506;7.672;2023-03-01T08:41:32;14.30;;;13.50;;
6121;SDS011;3091;51.506;7.672;2023-03-01T08:43:58;11.90;;;11.40;;
6121;SDS011;3091;51.506;7.672;2023-03-01T08:46:28;11.93;;;11.53;;
6121;SDS011;3091;51.506;7.672;2023-03-01T08:48:54;12.63;;;12.03;;
6121;SDS011;3091;51.506;7.672;2023-03-01T08:51:21;12.80;;;12.30;;
6121;SDS011;3091;51.506;7.672;2023-03-01T08:53:48;13.07;;;12.37;;
6121;SDS011;3091;51.506;7.672;2023-03-01T08:56:14;14.33;;;13.63;;
6121;SDS011;3091;51.506;7.672;2023-03-01T08:58:43;11.60;;;11.20;;
6121;SDS011;3091;51.506;7.672;2023-03-01T09:01:10;11.90;;;11.50;;
6121;SDS011;3091;51.506;7.672;2023-03-01T09:03:36;12.80;;;12.30;;
6121;SDS011;3091;51.506;7.672;2023-03-01T09:06:10;14.10;;;13.50;;
6121;SDS011;3091;51.506;7.672;2023-03-01T09:08:39;12.20;;;11.67;;
6121;SDS011;3091;51.506;7.672;2023-03-01T09:11:06;12.10;;;11.60;;
6121;SDS011;3091;51.506;7.672;2023-03-01T09:13:32;12.87;;;11.97;;
6121;SDS011;3091;51.506;7.672;2023-03-01T09:16:02;17.83;;;14.13;;
6121;SDS011;3091;51.506;7.672;2023-03-01T09:18:30;12.77;;;12.37;;
6121;SDS011;3091;51.506;7.672;2023-03-01T09:21:00;12.80;;;12.30;;
6121;SDS011;3091;51.506;7.672;2023-03-01T09:23:29;14.10;;;13.50;;
6121;SDS011;3091;51.506;7.672;2023-03-01T09:25:55;14.20;;;13.70;;
6121;SDS011;3091;51.506;7.672;2023-03-01T09:28:20;13.40;;;12.83;;
6121;SDS011;3091;51.506;7.672;2023-03-01T09:30:48;14.70;;;14.00;;
6121;SDS011;3091;51.506;7.672;2023-03-01T09:33:14;14.93;;;14.10;;
6121;SDS011;3091;51.506;7.672;2023-03-01T09:35:40;16.07;;;15.00;;
6121;SDS011;3091;51.506;7.672;2023-03-01T09:38:11;13.67;;;13.03;;
6121;SDS011;3091;51.506;7.672;2023-03-01T09:40:41;12.70;;;12.20;;
6121;SDS011;3091;51.506;7.672;2023-03-01T09:43:08;13.43;;;12.73;;
6121;SDS011;3091;51.506;7.672;2023-03-01T09:45:40;12.30;;;11.80;;
6121;SDS011;3091;51.506;7.672;2023-03-01T09:48:10;13.27;;;12.67;;
6121;SDS011;3091;51.506;7.672;2023-03-01T09:50:39;12.13;;;11.70;;
6121;SDS011;3091;51.506;7.672;2023-03-01T09:53:09;14.17;;;13.67;;
6121;SDS011;3091;51.506;7.672;2023-03-01T09:55:44;13.73;;;13.20;;
6121;SDS011;3091;51.506;7.672;2023-03-01T10:00:49;11.93;;;11.43;;
6121;SDS011;3091;51.506;7.672;2023-03-01T10:08:41;11.73;;;11.33;;
6121;SDS011;3091;51.506;7.672;2023-03-01T10:11:30;11.10;;;10.80;;
6121;SDS011;3091;51.506;7.672;2023-03-01T10:13:56;12.37;;;11.97;;
6121;SDS011;3091;51.506;7.672;2023-03-01T10:16:26;14.70;;;14.00;;
6121;SDS011;3091;51.506;7.672;2023-03-01T10:18:55;12.70;;;12.30;;
6121;SDS011;3091;51.506;7.672;2023-03-01T10:21:22;13.50;;;12.90;;
6121;SDS011;3091;51.506;7.672;2023-03-01T10:23:52;14.40;;;13.47;;
6121;SDS011;3091;51.506;7.672;2023-03-01T10:27:01;11.60;;;11.20;;
6121;SDS011;3091;51.506;7.672;2023-03-01T10:29:08;13.80;;;13.20;;
6121;SDS011;3091;51.506;7.672;2023-03-01T10:31:55;14.23;;;13.63;;
6121;SDS011;3091;51.506;7.672;2023-03-01T10:34:22;13.10;;;12.50;;
6121;SDS011;3091;51.506;7.672;2023-03-01T10:36:53;14.00;;;13.37;;
6121;SDS011;3091;51.506;7.672;2023-03-01T10:39:22;11.73;;;11.23;;
6121;SDS011;3091;51.506;7.672;2023-03-01T10:44:34;12.20;;;11.80;;
6121;SDS011;3091;51.506;7.672;2023-03-01T10:47:00;13.63;;;13.13;;
6121;SDS011;3091;51.506;7.672;2023-03-01T10:49:27;13.00;;;12.50;;
6121;SDS011;3091;51.506;7.672;2023-03-01T10:51:55;14.63;;;14.03;;
6121;SDS011;3091;51.506;7.672;2023-03-01T10:54:28;13.27;;;12.77;;
6121;SDS011;3091;51.506;7.672;2023-03-01T10:56:55;12.30;;;11.80;;
6121;SDS011;3091;51.506;7.672;2023-03-01T10:59:32;12.20;;;11.80;;
6121;SDS011;3091;51.506;7.672;2023-03-01T11:04:56;12.20;;;11.60;;
6121;SDS011;3091;51.506;7.672;2023-03-01T11:07:22;13.43;;;12.83;;
6121;SDS011;3091;51.506;7.672;2023-03-01T11:09:50;14.00;;;13.37;;
6121;SDS011;3091;51.506;7.672;2023-03-01T11:12:16;14.63;;;13.83;;
6121;SDS011;3091;51.506;7.672;2023-03-01T11:14:50;14.03;;;13.43;;
6121;SDS011;3091;51.506;7.672;2023-03-01T11:17:29;13.47;;;12.97;;
6121;SDS011;3091;51.506;7.672;2023-03-01T11:20:00;14.37;;;13.77;;
6121;SDS011;3091;51.506;7.672;2023-03-01T11:22:33;12.83;;;12.33;;
6121;SDS011;3091;51.506;7.672;2023-03-01T11:25:00;14.90;;;14.20;;
6121;SDS011;3091;51.506;7.672;2023-03-01T11:30:14;14.97;;;14.27;;
6121;SDS011;3091;51.506;7.672;2023-03-01T11:32:50;13.20;;;12.70;;
6121;SDS011;3091;51.506;7.672;2023-03-01T11:35:23;14.57;;;13.87;;
6121;SDS011;3091;51.506;7.672;2023-03-01T11:37:55;13.13;;;12.63;;
6121;SDS011;3091;51.506;7.672;2023-03-01T11:40:26;14.73;;;14.03;;
6121;SDS011;3091;51.506;7.672;2023-03-01T11:42:59;15.60;;;14.90;;
6121;SDS011;3091;51.506;7.672;2023-03-01T11:45:28;12.70;;;12.23;;
6121;SDS011;3091;51.506;7.672;2023-03-01T11:48:09;14.30;;;13.80;;
6121;SDS011;3091;51.506;7.672;2023-03-01T11:50:44;12.77;;;12.27;;
6121;SDS011;3091;51.506;7.672;2023-03-01T11:53:18;13.70;;;12.87;;
6121;SDS011;3091;51.506;7.672;2023-03-01T11:55:57;11.80;;;11.40;;
6121;SDS011;3091;51.506;7.672;2023-03-01T12:01:19;12.30;;;11.90;;
6121;SDS011;3091;51.506;7.672;2023-03-01T12:22:17;12.33;;;11.93;;
6121;SDS011;3091;51.506;7.672;2023-03-01T12:25:08;14.30;;;13.60;;
6121;SDS011;3091;51.506;7.672;2023-03-01T12:30:15;13.33;;;12.73;;
6121;SDS011;3091;51.506;7.672;2023-03-01T12:37:52;14.00;;;13.40;;
6121;SDS011;3091;51.506;7.672;2023-03-01T12:40:27;15.10;;;14.50;;
6121;SDS011;3091;51.506;7.672;2023-03-01T12:50:46;15.63;;;14.17;;
6121;SDS011;3091;51.506;7.672;2023-03-01T12:53:17;13.53;;;12.87;;
6121;SDS011;3091;51.506;7.672;2023-03-01T12:55:45;13.90;;;13.03;;
6121;SDS011;3091;51.506;7.672;2023-03-01T12:58:29;12.77;;;12.27;;
6121;SDS011;3091;51.506;7.672;2023-03-01T13:01:13;12.50;;;11.90;;
6121;SDS011;3091;51.506;7.672;2023-03-01T13:03:52;11.97;;;11.50;;
6121;SDS011;3091;51.506;7.672;2023-03-01T13:06:25;13.73;;;13.10;;
6121;SDS011;3091;51.506;7.672;2023-03-01T13:09:55;13.73;;;13.13;;
6121;SDS011;3091;51.506;7.672;2023-03-01T13:11:51;13.30;;;12.77;;
6121;SDS011;3091;51.506;7.672;2023-03-01T13:16:46;13.00;;;12.50;;
6121;SDS011;3091;51.506;7.672;2023-03-01T13:19:16;13.73;;;13.13;;
6121;SDS011;3091;51.506;7.672;2023-03-01T13:21:43;14.20;;;13.70;;
6121;SDS011;3091;51.506;7.672;2023-03-01T13:29:55;14.67;;;14.00;;
6121;SDS011;3091;51.506;7.672;2023-03-01T13:34:46;14.33;;;13.57;;
6121;SDS011;3091;51.506;7.672;2023-03-01T13:37:34;15.20;;;14.60;;
6121;SDS011;3091;51.506;7.672;2023-03-01T13:40:02;14.37;;;13.77;;
6121;SDS011;3091;51.506;7.672;2023-03-01T13:45:05;13.60;;;13.10;;
6121;SDS011;3091;51.506;7.672;2023-03-01T13:47:40;12.97;;;12.47;;
6121;SDS011;3091;51.506;7.672;2023-03-01T13:50:15;13.10;;;12.50;;
6121;SDS011;3091;51.506;7.672;2023-03-01T13:52:42;14.00;;;13.40;;
6121;SDS011;3091;51.506;7.672;2023-03-01T13:57:47;12.33;;;11.93;;
6121;SDS011;3091;51.506;7.672;2023-03-01T14:00:35;14.27;;;13.67;;
6121;SDS011;3091;51.506;7.672;2023-03-01T14:03:02;12.33;;;11.93;;
6121;SDS011;3091;51.506;7.672;2023-03-01T14:05:29;13.13;;;12.53;;
6121;SDS011;3091;51.506;7.672;2023-03-01T14:07:55;14.00;;;13.20;;
6121;SDS011;3091;51.506;7.672;2023-03-01T14:10:21;12.63;;;12.23;;
6121;SDS011;3091;51.506;7.672;2023-03-01T14:12:52;14.00;;;13.27;;
6121;SDS011;3091;51.506;7.672;2023-03-01T14:20:25;13.00;;;12.60;;
6121;SDS011;3091;51.506;7.672;2023-03-01T14:22:53;14.50;;;13.80;;
6121;SDS011;3091;51.506;7.672;2023-03-01T14:25:30;14.40;;;13.80;;
6121;SDS011;3091;51.506;7.672;2023-03-01T14:28:01;13.70;;;13.20;;
6121;SDS011;3091;51.506;7.672;2023-03-01T14:30:32;13.93;;;13.33;;
6121;SDS011;3091;51.506;7.672;2023-03-01T14:33:00;14.27;;;13.60;;
6121;SDS011;3091;51.506;7.672;2023-03-01T14:35:34;15.43;;;13.90;;
6121;SDS011;3091;51.506;7.672;2023-03-01T14:38:00;12.90;;;12.40;;
6121;SDS011;3091;51.506;7.672;2023-03-01T14:40:34;14.40;;;13.70;;
6121;SDS011;3091;51.506;7.672;2023-03-01T14:43:01;15.03;;;14.33;;
6121;SDS011;3091;51.506;7.672;2023-03-01T14:45:28;13.57;;;13.07;;
6121;SDS011;3091;51.506;7.672;2023-03-01T14:47:55;13.33;;;12.77;;
6121;SDS011;3091;51.506;7.672;2023-03-01T14:50:28;14.70;;;13.97;;
6121;SDS011;3091;51.506;7.672;2023-03-01T14:52:55;14.13;;;13.60;;
6121;SDS011;3091;51.506;7.672;2023-03-01T14:55:27;13.03;;;12.53;;
6121;SDS011;3091;51.506;7.672;2023-03-01T14:58:02;13.03;;;12.57;;
6121;SDS011;3091;51.506;7.672;2023-03-01T15:00:28;12.63;;;12.23;;
6121;SDS011;3091;51.506;7.672;2023-03-01T15:02:55;13.27;;;12.57;;
6121;SDS011;3091;51.506;7.672;2023-03-01T15:05:26;13.00;;;12.50;;
6121;SDS011;3091;51.506;7.672;2023-03-01T15:07:53;12.67;;;12.17;;
6121;SDS011;3091;51.506;7.672;2023-03-01T15:10:24;14.37;;;13.77;;
6121;SDS011;3091;51.506;7.672;2023-03-01T15:12:50;13.60;;;13.10;;
6121;SDS011;3091;51.506;7.672;2023-03-01T15:15:31;12.97;;;12.47;;
6121;SDS011;3091;51.506;7.672;2023-03-01T15:17:59;12.60;;;12.10;;
6121;SDS011;3091;51.506;7.672;2023-03-01T15:20:26;14.57;;;13.57;;
6121;SDS011;3091;51.506;7.672;2023-03-01T15:22:54;12.97;;;12.40;;
6121;SDS011;3091;51.506;7.672;2023-03-01T15:25:27;13.23;;;12.40;;
6121;SDS011;3091;51.506;7.672;2023-03-01T15:27:54;13.30;;;12.70;;
6121;SDS011;3091;51.506;7.672;2023-03-01T15:30:22;13.57;;;13.00;;
6121;SDS011;3091;51.506;7.672;2023-03-01T15:33:15;11.70;;;11.30;;
6121;SDS011;3091;51.506;7.672;2023-03-01T15:35:44;13.37;;;12.90;;
6121;SDS011;3091;51.506;7.672;2023-03-01T15:40:55;14.07;;;13.43;;
6121;SDS011;3091;51.506;7.672;2023-03-01T15:43:38;12.37;;;11.97;;
6121;SDS011;3091;51.506;7.672;2023-03-01T15:46:04;16.17;;;15.40;;
6121;SDS011;3091;51.506;7.672;2023-03-01T15:48:30;13.80;;;13.30;;
6121;SDS011;3091;51.506;7.672;2023-03-01T15:50:56;12.90;;;12.40;;
6121;SDS011;3091;51.506;7.672;2023-03-01T15:53:23;13.70;;;13.20;;
6121;SDS011;3091;51.506;7.672;2023-03-01T15:55:49;12.83;;;12.43;;
6121;SDS011;3091;51.506;7.672;2023-03-01T15:58:17;13.27;;;12.67;;
6121;SDS011;3091;51.506;7.672;2023-03-01T16:00:44;14.40;;;13.77;;
6121;SDS011;3091;51.506;7.672;2023-03-01T16:03:10;13.13;;;12.63;;
6121;SDS011;3091;51.506;7.672;2023-03-01T16:05:37;13.00;;;12.50;;
6121;SDS011;3091;51.506;7.672;2023-03-01T16:08:04;13.80;;;13.20;;
6121;SDS011;3091;51.506;7.672;2023-03-01T16:10:34;13.50;;;12.90;;
6121;SDS011;3091;51.506;7.672;2023-03-01T16:13:00;14.13;;;13.53;;
6121;SDS011;3091;51.506;7.672;2023-03-01T16:15:28;14.13;;;13.53;;
6121;SDS011;3091;51.506;7.672;2023-03-01T16:17:54;15.00;;;14.20;;
6121;SDS011;3091;51.506;7.672;2023-03-01T16:20:23;13.47;;;12.93;;
6121;SDS011;3091;51.506;7.672;2023-03-01T16:22:50;12.97;;;12.47;;
6121;SDS011;3091;51.506;7.672;2023-03-01T16:25:19;13.03;;;12.47;;
6121;SDS011;3091;51.506;7.672;2023-03-01T16:27:46;13.07;;;12.50;;